sensor_id;sensor_type;location;lat;lon;timestamp;temperature;humidity
37446;DHT22;23307;51.136;14.942;2023-07-24T00:00:40;22.90;72.40
37446;DHT22;23307;51.136;14.942;2023-07-24T00:03:06;22.80;72.50
37446;DHT22;23307;51.136;14.942;2023-07-24T00:05:32;22.80;72.40
37446;DHT22;23307;51.136;14.942;2023-07-24T00:07:57;22.90;72.50
37446;DHT22;23307;51.136;14.942;2023-07-24T00:10:23;22.90;72.40
37446;DHT22;23307;51.136;14.942;2023-07-24T00:12:49;23.00;72.50
37446;DHT22;23307;51.136;14.942;2023-07-24T00:15:14;23.00;72.80
37446;DHT22;23307;51.136;14.942;2023-07-24T00:17:40;23.10;72.90
37446;DHT22;23307;51.136;14.942;2023-07-24T00:20:06;23.10;72.80
37446;DHT22;23307;51.136;14.942;2023-07-24T00:22:32;23.10;72.80
37446;DHT22;23307;51.136;14.942;2023-07-24T00:24:57;23.20;72.60
37446;DHT22;23307;51.136;14.942;2023-07-24T00:27:23;23.20;72.20
37446;DHT22;23307;51.136;14.942;2023-07-24T00:29:48;23.20;72.40
37446;DHT22;23307;51.136;14.942;2023-07-24T00:32:14;23.10;72.70
37446;DHT22;23307;51.136;14.942;2023-07-24T00:34:39;23.20;73.60
37446;DHT22;23307;51.136;14.942;2023-07-24T00:37:05;23.10;74.10
37446;DHT22;23307;51.136;14.942;2023-07-24T00:39:31;23.00;74.20
37446;DHT22;23307;51.136;14.942;2023-07-24T00:41:56;23.00;74.30
37446;DHT22;23307;51.136;14.942;2023-07-24T00:44:22;23.00;74.30
37446;DHT22;23307;51.136;14.942;2023-07-24T00:46:48;23.00;74.20
37446;DHT22;23307;51.136;14.942;2023-07-24T00:49:13;23.10;74.20
37446;DHT22;23307;51.136;14.942;2023-07-24T00:51:39;23.10;74.70
37446;DHT22;23307;51.136;14.942;2023-07-24T00:54:06;23.00;75.90
37446;DHT22;23307;51.136;14.942;2023-07-24T00:56:32;23.00;76.70
37446;DHT22;23307;51.136;14.942;2023-07-24T00:58:59;22.90;76.50
37446;DHT22;23307;51.136;14.942;2023-07-24T01:01:25;22.80;76.50
37446;DHT22;23307;51.136;14.942;2023-07-24T01:03:51;22.70;76.80
37446;DHT22;23307;51.136;14.942;2023-07-24T01:06:17;22.70;76.50
37446;DHT22;23307;51.136;14.942;2023-07-24T01:08:42;22.70;76.60
37446;DHT22;23307;51.136;14.942;2023-07-24T01:11:24;22.60;76.40
37446;DHT22;23307;51.136;14.942;2023-07-24T01:14:04;22.60;76.50
37446;DHT22;23307;51.136;14.942;2023-07-24T01:16:37;22.60;76.80
37446;DHT22;23307;51.136;14.942;2023-07-24T01:19:07;22.50;76.80
37446;DHT22;23307;51.136;14.942;2023-07-24T01:21:52;22.40;76.90
37446;DHT22;23307;51.136;14.942;2023-07-24T01:24:36;22.30;77.20
37446;DHT22;23307;51.136;14.942;2023-07-24T01:27:04;22.20;77.70
37446;DHT22;23307;51.136;14.942;2023-07-24T01:29:32;22.10;78.00
37446;DHT22;23307;51.136;14.942;2023-07-24T01:31:57;22.00;78.30
37446;DHT22;23307;51.136;14.942;2023-07-24T01:34:23;21.90;78.60
37446;DHT22;23307;51.136;14.942;2023-07-24T01:36:49;21.90;79.00
37446;DHT22;23307;51.136;14.942;2023-07-24T01:39:15;21.80;79.30
37446;DHT22;23307;51.136;14.942;2023-07-24T01:41:41;21.90;79.70
37446;DHT22;23307;51.136;14.942;2023-07-24T01:44:08;21.90;79.90
37446;DHT22;23307;51.136;14.942;2023-07-24T01:46:33;21.90;80.00
37446;DHT22;23307;51.136;14.942;2023-07-24T01:48:59;22.00;80.20
37446;DHT22;23307;51.136;14.942;2023-07-24T01:51:24;22.10;80.00
37446;DHT22;23307;51.136;14.942;2023-07-24T01:53:50;22.20;80.00
37446;DHT22;23307;51.136;14.942;2023-07-24T01:56:15;22.30;80.10
37446;DHT22;23307;51.136;14.942;2023-07-24T01:58:41;22.30;80.00
37446;DHT22;23307;51.136;14.942;2023-07-24T02:01:06;22.30;80.20
37446;DHT22;23307;51.136;14.942;2023-07-24T02:03:32;22.30;80.20
37446;DHT22;23307;51.136;14.942;2023-07-24T02:05:57;22.30;80.40
37446;DHT22;23307;51.136;14.942;2023-07-24T02:08:23;22.30;80.50
37446;DHT22;23307;51.136;14.942;2023-07-24T02:10:49;22.30;80.80
37446;DHT22;23307;51.136;14.942;2023-07-24T02:13:15;22.30;81.00
37446;DHT22;23307;51.136;14.942;2023-07-24T02:15:41;22.30;81.20
37446;DHT22;23307;51.136;14.942;2023-07-24T02:18:06;22.30;81.30
37446;DHT22;23307;51.136;14.942;2023-07-24T02:20:32;22.30;81.30
37446;DHT22;23307;51.136;14.942;2023-07-24T02:22:57;22.30;81.30
37446;DHT22;23307;51.136;14.942;2023-07-24T02:25:23;22.30;81.50
37446;DHT22;23307;51.136;14.942;2023-07-24T02:27:48;22.30;81.60
37446;DHT22;23307;51.136;14.942;2023-07-24T02:30:14;22.30;81.70
37446;DHT22;23307;51.136;14.942;2023-07-24T02:32:40;22.30;81.70
37446;DHT22;23307;51.136;14.942;2023-07-24T02:35:06;22.30;81.70
37446;DHT22;23307;51.136;14.942;2023-07-24T02:37:31;22.30;81.70
37446;DHT22;23307;51.136;14.942;2023-07-24T02:39:57;22.40;81.60
37446;DHT22;23307;51.136;14.942;2023-07-24T02:42:22;22.40;81.80
37446;DHT22;23307;51.136;14.942;2023-07-24T02:44:48;22.40;82.00
37446;DHT22;23307;51.136;14.942;2023-07-24T02:47:13;22.30;82.40
37446;DHT22;23307;51.136;14.942;2023-07-24T02:49:39;22.20;82.60
37446;DHT22;23307;51.136;14.942;2023-07-24T02:52:05;22.20;82.40
37446;DHT22;23307;51.136;14.942;2023-07-24T02:54:30;22.10;82.50
37446;DHT22;23307;51.136;14.942;2023-07-24T02:56:56;22.10;82.60
37446;DHT22;23307;51.136;14.942;2023-07-24T02:59:23;22.00;82.30
37446;DHT22;23307;51.136;14.942;2023-07-24T03:01:48;22.00;82.00
37446;DHT22;23307;51.136;14.942;2023-07-24T03:04:14;22.00;81.90
37446;DHT22;23307;51.136;14.942;2023-07-24T03:06:40;22.00;81.60
37446;DHT22;23307;51.136;14.942;2023-07-24T03:09:06;22.10;81.10
37446;DHT22;23307;51.136;14.942;2023-07-24T03:11:31;22.10;80.90
37446;DHT22;23307;51.136;14.942;2023-07-24T03:13:57;22.10;80.60
37446;DHT22;23307;51.136;14.942;2023-07-24T03:16:22;22.10;80.30
37446;DHT22;23307;51.136;14.942;2023-07-24T03:18:48;22.10;80.00
37446;DHT22;23307;51.136;14.942;2023-07-24T03:21:13;22.20;79.70
37446;DHT22;23307;51.136;14.942;2023-07-24T03:23:39;22.10;79.40
37446;DHT22;23307;51.136;14.942;2023-07-24T03:26:04;22.10;79.20
37446;DHT22;23307;51.136;14.942;2023-07-24T03:28:30;22.10;79.30
37446;DHT22;23307;51.136;14.942;2023-07-24T03:30:55;22.10;79.20
37446;DHT22;23307;51.136;14.942;2023-07-24T03:33:21;22.10;79.30
37446;DHT22;23307;51.136;14.942;2023-07-24T03:35:46;22.10;79.30
37446;DHT22;23307;51.136;14.942;2023-07-24T03:38:12;22.10;79.40
37446;DHT22;23307;51.136;14.942;2023-07-24T03:40:37;22.00;79.50
37446;DHT22;23307;51.136;14.942;2023-07-24T03:43:03;22.00;79.60
37446;DHT22;23307;51.136;14.942;2023-07-24T03:45:29;22.00;80.00
37446;DHT22;23307;51.136;14.942;2023-07-24T03:47:54;21.90;79.90
37446;DHT22;23307;51.136;14.942;2023-07-24T03:50:20;21.90;79.90
37446;DHT22;23307;51.136;14.942;2023-07-24T03:52:45;21.90;79.90
37446;DHT22;23307;51.136;14.942;2023-07-24T03:55:11;21.90;80.00
37446;DHT22;23307;51.136;14.942;2023-07-24T03:57:36;21.90;80.00
37446;DHT22;23307;51.136;14.942;2023-07-24T04:00:03;21.90;80.10
37446;DHT22;23307;51.136;14.942;2023-07-24T04:02:28;21.90;80.10
37446;DHT22;23307;51.136;14.942;2023-07-24T04:04:54;21.90;80.00
37446;DHT22;23307;51.136;14.942;2023-07-24T04:07:20;21.90;80.10
37446;DHT22;23307;51.136;14.942;2023-07-24T04:09:45;21.90;80.20
37446;DHT22;23307;51.136;14.942;2023-07-24T04:12:11;22.00;80.10
37446;DHT22;23307;51.136;14.942;2023-07-24T04:14:36;22.00;80.10
37446;DHT22;23307;51.136;14.942;2023-07-24T04:17:02;22.00;80.10
37446;DHT22;23307;51.136;14.942;2023-07-24T04:19:27;22.00;80.00
37446;DHT22;23307;51.136;14.942;2023-07-24T04:21:53;22.00;80.10
37446;DHT22;23307;51.136;14.942;2023-07-24T04:24:18;22.00;80.20
37446;DHT22;23307;51.136;14.942;2023-07-24T04:26:44;22.00;80.10
37446;DHT22;23307;51.136;14.942;2023-07-24T04:29:09;22.10;80.20
37446;DHT22;23307;51.136;14.942;2023-07-24T04:31:35;22.10;80.40
37446;DHT22;23307;51.136;14.942;2023-07-24T04:34:00;22.10;80.40
37446;DHT22;23307;51.136;14.942;2023-07-24T04:36:26;22.10;80.30
37446;DHT22;23307;51.136;14.942;2023-07-24T04:38:52;22.20;80.10
37446;DHT22;23307;51.136;14.942;2023-07-24T04:41:17;22.20;80.00
37446;DHT22;23307;51.136;14.942;2023-07-24T04:43:43;22.20;79.90
37446;DHT22;23307;51.136;14.942;2023-07-24T04:46:08;22.30;80.00
37446;DHT22;23307;51.136;14.942;2023-07-24T04:48:34;22.30;79.90
37446;DHT22;23307;51.136;14.942;2023-07-24T04:50:59;22.40;79.90
37446;DHT22;23307;51.136;14.942;2023-07-24T04:53:25;22.40;79.80
37446;DHT22;23307;51.136;14.942;2023-07-24T04:55:50;22.40;79.50
37446;DHT22;23307;51.136;14.942;2023-07-24T04:58:16;22.50;79.50
37446;DHT22;23307;51.136;14.942;2023-07-24T05:00:41;22.50;79.70
37446;DHT22;23307;51.136;14.942;2023-07-24T05:03:07;22.50;79.80
37446;DHT22;23307;51.136;14.942;2023-07-24T05:05:39;22.50;80.00
37446;DHT22;23307;51.136;14.942;2023-07-24T05:08:05;22.50;80.10
37446;DHT22;23307;51.136;14.942;2023-07-24T05:10:37;22.40;80.30
37446;DHT22;23307;51.136;14.942;2023-07-24T05:13:02;22.40;80.50
37446;DHT22;23307;51.136;14.942;2023-07-24T05:15:28;22.40;80.60
37446;DHT22;23307;51.136;14.942;2023-07-24T05:17:53;22.40;80.80
37446;DHT22;23307;51.136;14.942;2023-07-24T05:20:19;22.40;80.90
37446;DHT22;23307;51.136;14.942;2023-07-24T05:22:45;22.40;81.20
37446;DHT22;23307;51.136;14.942;2023-07-24T05:25:10;22.40;81.10
37446;DHT22;23307;51.136;14.942;2023-07-24T05:27:36;22.40;81.20
37446;DHT22;23307;51.136;14.942;2023-07-24T05:30:02;22.40;81.00
37446;DHT22;23307;51.136;14.942;2023-07-24T05:32:28;22.40;81.30
37446;DHT22;23307;51.136;14.942;2023-07-24T05:34:53;22.50;81.40
37446;DHT22;23307;51.136;14.942;2023-07-24T05:37:19;22.50;81.30
37446;DHT22;23307;51.136;14.942;2023-07-24T05:39:44;22.60;81.40
37446;DHT22;23307;51.136;14.942;2023-07-24T05:42:10;22.70;81.10
37446;DHT22;23307;51.136;14.942;2023-07-24T05:44:35;22.70;80.70
37446;DHT22;23307;51.136;14.942;2023-07-24T05:47:02;22.90;81.40
37446;DHT22;23307;51.136;14.942;2023-07-24T05:49:28;23.00;81.00
37446;DHT22;23307;51.136;14.942;2023-07-24T05:51:53;23.10;81.00
37446;DHT22;23307;51.136;14.942;2023-07-24T05:54:19;23.20;80.40
37446;DHT22;23307;51.136;14.942;2023-07-24T05:56:45;23.30;80.50
37446;DHT22;23307;51.136;14.942;2023-07-24T05:59:10;23.30;80.20
37446;DHT22;23307;51.136;14.942;2023-07-24T06:01:36;23.30;80.30
37446;DHT22;23307;51.136;14.942;2023-07-24T06:04:01;23.30;80.30
37446;DHT22;23307;51.136;14.942;2023-07-24T06:06:27;23.40;80.00
37446;DHT22;23307;51.136;14.942;2023-07-24T06:08:53;23.50;79.90
37446;DHT22;23307;51.136;14.942;2023-07-24T06:11:19;23.60;79.50
37446;DHT22;23307;51.136;14.942;2023-07-24T06:13:44;23.80;79.80
37446;DHT22;23307;51.136;14.942;2023-07-24T06:16:10;23.90;79.10
37446;DHT22;23307;51.136;14.942;2023-07-24T06:18:38;24.00;79.20
37446;DHT22;23307;51.136;14.942;2023-07-24T06:21:03;24.10;78.70
37446;DHT22;23307;51.136;14.942;2023-07-24T06:23:29;24.20;78.00
37446;DHT22;23307;51.136;14.942;2023-07-24T06:25:54;24.20;77.40
37446;DHT22;23307;51.136;14.942;2023-07-24T06:28:21;24.20;77.60
37446;DHT22;23307;51.136;14.942;2023-07-24T06:30:46;24.30;77.80
37446;DHT22;23307;51.136;14.942;2023-07-24T06:33:12;24.30;77.20
37446;DHT22;23307;51.136;14.942;2023-07-24T06:35:37;24.40;77.10
37446;DHT22;23307;51.136;14.942;2023-07-24T06:38:03;24.60;76.90
37446;DHT22;23307;51.136;14.942;2023-07-24T06:40:29;24.60;76.60
37446;DHT22;23307;51.136;14.942;2023-07-24T06:42:54;24.70;76.70
37446;DHT22;23307;51.136;14.942;2023-07-24T06:45:20;24.80;76.70
37446;DHT22;23307;51.136;14.942;2023-07-24T06:47:45;24.80;76.20
37446;DHT22;23307;51.136;14.942;2023-07-24T06:50:11;24.90;76.00
37446;DHT22;23307;51.136;14.942;2023-07-24T06:52:36;24.90;76.00
37446;DHT22;23307;51.136;14.942;2023-07-24T06:55:02;24.90;76.40
37446;DHT22;23307;51.136;14.942;2023-07-24T06:57:28;25.00;76.00
37446;DHT22;23307;51.136;14.942;2023-07-24T06:59:53;25.10;75.90
37446;DHT22;23307;51.136;14.942;2023-07-24T07:02:19;25.20;75.70
37446;DHT22;23307;51.136;14.942;2023-07-24T07:04:45;25.30;76.10
37446;DHT22;23307;51.136;14.942;2023-07-24T07:07:11;25.40;75.50
37446;DHT22;23307;51.136;14.942;2023-07-24T07:09:36;25.40;75.30
37446;DHT22;23307;51.136;14.942;2023-07-24T07:12:02;25.60;74.90
37446;DHT22;23307;51.136;14.942;2023-07-24T07:14:27;25.70;74.40
37446;DHT22;23307;51.136;14.942;2023-07-24T07:16:53;25.70;74.80
37446;DHT22;23307;51.136;14.942;2023-07-24T07:19:18;25.80;75.20
37446;DHT22;23307;51.136;14.942;2023-07-24T07:21:44;25.90;74.60
37446;DHT22;23307;51.136;14.942;2023-07-24T07:24:09;26.10;74.60
37446;DHT22;23307;51.136;14.942;2023-07-24T07:26:35;26.20;74.40
37446;DHT22;23307;51.136;14.942;2023-07-24T07:29:00;26.30;72.90
37446;DHT22;23307;51.136;14.942;2023-07-24T07:31:26;26.40;73.20
37446;DHT22;23307;51.136;14.942;2023-07-24T07:33:52;26.60;73.10
37446;DHT22;23307;51.136;14.942;2023-07-24T07:36:17;26.70;71.90
37446;DHT22;23307;51.136;14.942;2023-07-24T07:38:43;26.70;71.90
37446;DHT22;23307;51.136;14.942;2023-07-24T07:41:09;26.80;72.10
37446;DHT22;23307;51.136;14.942;2023-07-24T07:43:34;26.90;71.90
37446;DHT22;23307;51.136;14.942;2023-07-24T07:46:02;27.00;71.20
37446;DHT22;23307;51.136;14.942;2023-07-24T07:48:27;27.00;70.50
37446;DHT22;23307;51.136;14.942;2023-07-24T07:50:53;26.90;71.30
37446;DHT22;23307;51.136;14.942;2023-07-24T07:53:18;27.00;71.70
37446;DHT22;23307;51.136;14.942;2023-07-24T07:55:44;27.00;71.50
37446;DHT22;23307;51.136;14.942;2023-07-24T07:58:09;27.10;70.90
37446;DHT22;23307;51.136;14.942;2023-07-24T08:00:35;27.10;70.90
37446;DHT22;23307;51.136;14.942;2023-07-24T08:03:00;27.10;71.40
37446;DHT22;23307;51.136;14.942;2023-07-24T08:05:26;27.10;71.30
37446;DHT22;23307;51.136;14.942;2023-07-24T08:07:51;27.20;71.70
37446;DHT22;23307;51.136;14.942;2023-07-24T08:10:17;27.30;72.00
37446;DHT22;23307;51.136;14.942;2023-07-24T08:12:43;27.50;72.40
37446;DHT22;23307;51.136;14.942;2023-07-24T08:15:09;27.70;71.30
37446;DHT22;23307;51.136;14.942;2023-07-24T08:17:35;27.80;71.70
37446;DHT22;23307;51.136;14.942;2023-07-24T08:20:00;28.00;70.60
37446;DHT22;23307;51.136;14.942;2023-07-24T08:22:26;28.10;70.30
37446;DHT22;23307;51.136;14.942;2023-07-24T08:24:51;28.10;69.70
37446;DHT22;23307;51.136;14.942;2023-07-24T08:27:17;28.20;69.80
37446;DHT22;23307;51.136;14.942;2023-07-24T08:29:43;28.30;68.80
37446;DHT22;23307;51.136;14.942;2023-07-24T08:32:08;28.50;69.40
37446;DHT22;23307;51.136;14.942;2023-07-24T08:34:34;28.60;69.90
37446;DHT22;23307;51.136;14.942;2023-07-24T08:36:59;28.70;70.00
37446;DHT22;23307;51.136;14.942;2023-07-24T08:39:25;28.70;68.90
37446;DHT22;23307;51.136;14.942;2023-07-24T08:41:50;28.70;67.80
37446;DHT22;23307;51.136;14.942;2023-07-24T08:44:16;28.60;67.20
37446;DHT22;23307;51.136;14.942;2023-07-24T08:46:43;28.50;67.80
37446;DHT22;23307;51.136;14.942;2023-07-24T08:49:14;28.50;67.90
37446;DHT22;23307;51.136;14.942;2023-07-24T08:51:41;28.50;69.00
37446;DHT22;23307;51.136;14.942;2023-07-24T08:54:08;28.50;69.30
37446;DHT22;23307;51.136;14.942;2023-07-24T08:56:33;28.40;69.00
37446;DHT22;23307;51.136;14.942;2023-07-24T08:59:01;28.60;69.60
37446;DHT22;23307;51.136;14.942;2023-07-24T09:01:26;28.80;70.10
37446;DHT22;23307;51.136;14.942;2023-07-24T09:03:52;29.10;70.60
37446;DHT22;23307;51.136;14.942;2023-07-24T09:06:17;29.20;69.10
37446;DHT22;23307;51.136;14.942;2023-07-24T09:08:43;29.30;69.90
37446;DHT22;23307;51.136;14.942;2023-07-24T09:11:10;29.30;69.20
37446;DHT22;23307;51.136;14.942;2023-07-24T09:13:40;29.40;69.00
37446;DHT22;23307;51.136;14.942;2023-07-24T09:16:06;29.60;69.30
37446;DHT22;23307;51.136;14.942;2023-07-24T09:18:42;29.90;68.30
37446;DHT22;23307;51.136;14.942;2023-07-24T09:21:09;30.20;66.40
37446;DHT22;23307;51.136;14.942;2023-07-24T09:23:34;30.40;67.20
37446;DHT22;23307;51.136;14.942;2023-07-24T09:26:05;30.70;65.00
37446;DHT22;23307;51.136;14.942;2023-07-24T09:28:33;30.70;64.80
37446;DHT22;23307;51.136;14.942;2023-07-24T09:30:59;30.70;64.20
37446;DHT22;23307;51.136;14.942;2023-07-24T09:33:36;30.70;63.70
37446;DHT22;23307;51.136;14.942;2023-07-24T09:36:03;30.70;64.10
37446;DHT22;23307;51.136;14.942;2023-07-24T09:38:30;30.70;63.40
37446;DHT22;23307;51.136;14.942;2023-07-24T09:40:56;30.80;62.90
37446;DHT22;23307;51.136;14.942;2023-07-24T09:43:27;30.90;61.40
37446;DHT22;23307;51.136;14.942;2023-07-24T09:45:53;30.90;61.30
37446;DHT22;23307;51.136;14.942;2023-07-24T09:48:21;31.00;62.10
37446;DHT22;23307;51.136;14.942;2023-07-24T09:50:53;31.20;62.30
37446;DHT22;23307;51.136;14.942;2023-07-24T09:55:58;31.30;64.10
37446;DHT22;23307;51.136;14.942;2023-07-24T09:58:25;31.20;64.10
37446;DHT22;23307;51.136;14.942;2023-07-24T10:00:53;31.30;65.00
37446;DHT22;23307;51.136;14.942;2023-07-24T10:03:18;31.30;64.00
37446;DHT22;23307;51.136;14.942;2023-07-24T10:05:46;31.10;63.30
37446;DHT22;23307;51.136;14.942;2023-07-24T10:08:12;30.90;62.90
37446;DHT22;23307;51.136;14.942;2023-07-24T10:10:39;30.80;63.70
37446;DHT22;23307;51.136;14.942;2023-07-24T10:13:05;30.70;63.60
37446;DHT22;23307;51.136;14.942;2023-07-24T10:15:31;30.70;63.80
37446;DHT22;23307;51.136;14.942;2023-07-24T10:18:07;30.70;64.20
37446;DHT22;23307;51.136;14.942;2023-07-24T10:20:40;30.80;64.70
37446;DHT22;23307;51.136;14.942;2023-07-24T10:23:11;30.90;64.40
37446;DHT22;23307;51.136;14.942;2023-07-24T10:25:41;31.10;64.30
37446;DHT22;23307;51.136;14.942;2023-07-24T10:28:11;31.20;63.70
37446;DHT22;23307;51.136;14.942;2023-07-24T10:30:38;31.30;63.80
37446;DHT22;23307;51.136;14.942;2023-07-24T10:33:12;31.20;64.20
37446;DHT22;23307;51.136;14.942;2023-07-24T10:35:51;31.30;65.30
37446;DHT22;23307;51.136;14.942;2023-07-24T10:38:17;31.40;64.10
37446;DHT22;23307;51.136;14.942;2023-07-24T10:40:45;31.50;64.10
37446;DHT22;23307;51.136;14.942;2023-07-24T10:43:14;31.60;63.40
37446;DHT22;23307;51.136;14.942;2023-07-24T10:45:50;31.70;63.60
37446;DHT22;23307;51.136;14.942;2023-07-24T10:48:17;31.70;62.90
37446;DHT22;23307;51.136;14.942;2023-07-24T10:50:49;31.50;62.80
37446;DHT22;23307;51.136;14.942;2023-07-24T10:53:16;31.30;63.70
37446;DHT22;23307;51.136;14.942;2023-07-24T10:55:46;31.30;64.10
37446;DHT22;23307;51.136;14.942;2023-07-24T10:58:13;31.20;64.20
37446;DHT22;23307;51.136;14.942;2023-07-24T11:00:40;31.20;64.10
37446;DHT22;23307;51.136;14.942;2023-07-24T11:03:12;31.20;64.60
37446;DHT22;23307;51.136;14.942;2023-07-24T11:05:45;31.30;64.50
37446;DHT22;23307;51.136;14.942;2023-07-24T11:08:11;31.40;64.00
37446;DHT22;23307;51.136;14.942;2023-07-24T11:10:54;31.40;63.90
37446;DHT22;23307;51.136;14.942;2023-07-24T11:13:22;31.50;63.40
37446;DHT22;23307;51.136;14.942;2023-07-24T11:15:49;31.50;64.00
37446;DHT22;23307;51.136;14.942;2023-07-24T11:18:15;31.50;64.70
37446;DHT22;23307;51.136;14.942;2023-07-24T11:20:45;31.60;65.50
37446;DHT22;23307;51.136;14.942;2023-07-24T11:23:11;31.60;62.40
37446;DHT22;23307;51.136;14.942;2023-07-24T11:25:38;31.40;62.60
37446;DHT22;23307;51.136;14.942;2023-07-24T11:28:07;31.30;63.80
37446;DHT22;23307;51.136;14.942;2023-07-24T11:30:34;31.20;63.00
37446;DHT22;23307;51.136;14.942;2023-07-24T11:33:01;31.00;63.60
37446;DHT22;23307;51.136;14.942;2023-07-24T11:35:27;30.80;64.00
37446;DHT22;23307;51.136;14.942;2023-07-24T11:37:53;30.50;64.40
37446;DHT22;23307;51.136;14.942;2023-07-24T11:40:19;30.30;65.20
37446;DHT22;23307;51.136;14.942;2023-07-24T11:42:47;30.10;66.00
37446;DHT22;23307;51.136;14.942;2023-07-24T11:45:13;29.90;67.90
37446;DHT22;23307;51.136;14.942;2023-07-24T11:47:49;29.70;71.80
37446;DHT22;23307;51.136;14.942;2023-07-24T11:50:16;29.30;75.00
37446;DHT22;23307;51.136;14.942;2023-07-24T11:52:47;29.10;78.60
37446;DHT22;23307;51.136;14.942;2023-07-24T11:55:15;28.80;78.90
37446;DHT22;23307;51.136;14.942;2023-07-24T11:57:41;28.60;78.10
37446;DHT22;23307;51.136;14.942;2023-07-24T12:00:20;28.40;80.50
37446;DHT22;23307;51.136;14.942;2023-07-24T12:02:46;28.20;79.80
37446;DHT22;23307;51.136;14.942;2023-07-24T12:05:12;27.90;78.60
37446;DHT22;23307;51.136;14.942;2023-07-24T12:07:37;27.80;80.00
37446;DHT22;23307;51.136;14.942;2023-07-24T12:10:04;27.80;81.10
37446;DHT22;23307;51.136;14.942;2023-07-24T12:12:39;27.80;81.60
37446;DHT22;23307;51.136;14.942;2023-07-24T12:15:05;27.70;81.50
37446;DHT22;23307;51.136;14.942;2023-07-24T12:17:31;27.70;80.60
37446;DHT22;23307;51.136;14.942;2023-07-24T12:19:56;27.70;80.90
37446;DHT22;23307;51.136;14.942;2023-07-24T12:22:22;27.80;79.10
37446;DHT22;23307;51.136;14.942;2023-07-24T12:24:48;27.90;79.90
37446;DHT22;23307;51.136;14.942;2023-07-24T12:27:13;27.90;79.50
37446;DHT22;23307;51.136;14.942;2023-07-24T12:29:39;27.90;79.50
37446;DHT22;23307;51.136;14.942;2023-07-24T12:32:04;28.10;80.70
37446;DHT22;23307;51.136;14.942;2023-07-24T12:34:30;28.20;80.20
37446;DHT22;23307;51.136;14.942;2023-07-24T12:36:56;28.20;79.20
37446;DHT22;23307;51.136;14.942;2023-07-24T12:39:21;28.20;79.10
37446;DHT22;23307;51.136;14.942;2023-07-24T12:41:47;28.10;78.90
37446;DHT22;23307;51.136;14.942;2023-07-24T12:44:12;28.00;78.10
37446;DHT22;23307;51.136;14.942;2023-07-24T12:46:38;28.00;78.70
37446;DHT22;23307;51.136;14.942;2023-07-24T12:49:04;28.10;79.50
37446;DHT22;23307;51.136;14.942;2023-07-24T12:51:29;28.30;79.80
37446;DHT22;23307;51.136;14.942;2023-07-24T12:53:55;28.50;79.80
37446;DHT22;23307;51.136;14.942;2023-07-24T12:56:20;28.70;80.20
37446;DHT22;23307;51.136;14.942;2023-07-24T12:58:46;28.90;79.20
37446;DHT22;23307;51.136;14.942;2023-07-24T13:01:11;29.10;78.20
37446;DHT22;23307;51.136;14.942;2023-07-24T13:03:37;29.10;77.80
37446;DHT22;23307;51.136;14.942;2023-07-24T13:06:02;29.10;77.80
37446;DHT22;23307;51.136;14.942;2023-07-24T13:08:28;29.20;77.80
37446;DHT22;23307;51.136;14.942;2023-07-24T13:10:53;29.30;77.90
37446;DHT22;23307;51.136;14.942;2023-07-24T13:13:19;29.40;77.50
37446;DHT22;23307;51.136;14.942;2023-07-24T13:15:44;29.30;77.10
37446;DHT22;23307;51.136;14.942;2023-07-24T13:18:10;29.40;77.50
37446;DHT22;23307;51.136;14.942;2023-07-24T13:20:39;29.40;77.70
37446;DHT22;23307;51.136;14.942;2023-07-24T13:23:05;29.40;78.20
37446;DHT22;23307;51.136;14.942;2023-07-24T13:25:31;29.40;78.20
37446;DHT22;23307;51.136;14.942;2023-07-24T13:27:56;29.30;79.10
37446;DHT22;23307;51.136;14.942;2023-07-24T13:30:22;29.40;79.10
37446;DHT22;23307;51.136;14.942;2023-07-24T13:32:47;29.40;79.10
37446;DHT22;23307;51.136;14.942;2023-07-24T13:35:13;29.30;79.90
37446;DHT22;23307;51.136;14.942;2023-07-24T13:37:40;29.30;79.50
37446;DHT22;23307;51.136;14.942;2023-07-24T13:40:06;29.20;80.50
37446;DHT22;23307;51.136;14.942;2023-07-24T13:42:32;29.20;80.60
37446;DHT22;23307;51.136;14.942;2023-07-24T13:44:58;29.10;80.50
37446;DHT22;23307;51.136;14.942;2023-07-24T13:47:23;29.10;80.10
37446;DHT22;23307;51.136;14.942;2023-07-24T13:49:49;29.00;80.30
37446;DHT22;23307;51.136;14.942;2023-07-24T13:52:14;28.90;80.80
37446;DHT22;23307;51.136;14.942;2023-07-24T13:54:40;28.80;80.40
37446;DHT22;23307;51.136;14.942;2023-07-24T13:57:06;28.60;78.20
37446;DHT22;23307;51.136;14.942;2023-07-24T13:59:36;28.50;77.10
37446;DHT22;23307;51.136;14.942;2023-07-24T14:02:04;28.40;76.10
37446;DHT22;23307;51.136;14.942;2023-07-24T14:04:30;28.30;76.10
37446;DHT22;23307;51.136;14.942;2023-07-24T14:06:55;28.20;76.10
37446;DHT22;23307;51.136;14.942;2023-07-24T14:09:21;28.10;76.60
37446;DHT22;23307;51.136;14.942;2023-07-24T14:11:46;28.00;78.30
37446;DHT22;23307;51.136;14.942;2023-07-24T14:14:12;27.70;80.00
37446;DHT22;23307;51.136;14.942;2023-07-24T14:16:38;27.50;82.90
37446;DHT22;23307;51.136;14.942;2023-07-24T14:19:03;27.30;83.20
37446;DHT22;23307;51.136;14.942;2023-07-24T14:21:29;27.10;83.70
37446;DHT22;23307;51.136;14.942;2023-07-24T14:23:54;27.00;84.80
37446;DHT22;23307;51.136;14.942;2023-07-24T14:26:20;26.70;85.20
37446;DHT22;23307;51.136;14.942;2023-07-24T14:28:46;26.70;85.90
37446;DHT22;23307;51.136;14.942;2023-07-24T14:31:12;26.70;85.90
37446;DHT22;23307;51.136;14.942;2023-07-24T14:33:37;26.70;86.80
37446;DHT22;23307;51.136;14.942;2023-07-24T14:36:03;26.70;87.50
37446;DHT22;23307;51.136;14.942;2023-07-24T14:38:28;26.80;88.00
37446;DHT22;23307;51.136;14.942;2023-07-24T14:40:54;26.60;88.50
37446;DHT22;23307;51.136;14.942;2023-07-24T14:43:19;26.50;88.90
37446;DHT22;23307;51.136;14.942;2023-07-24T14:45:45;26.50;88.90
37446;DHT22;23307;51.136;14.942;2023-07-24T14:48:11;26.50;90.00
37446;DHT22;23307;51.136;14.942;2023-07-24T14:50:39;26.50;90.30
37446;DHT22;23307;51.136;14.942;2023-07-24T14:53:05;26.50;90.50
37446;DHT22;23307;51.136;14.942;2023-07-24T14:55:31;26.50;91.10
37446;DHT22;23307;51.136;14.942;2023-07-24T14:57:56;26.60;91.20
37446;DHT22;23307;51.136;14.942;2023-07-24T15:00:22;26.70;91.60
37446;DHT22;23307;51.136;14.942;2023-07-24T15:02:47;27.00;91.50
37446;DHT22;23307;51.136;14.942;2023-07-24T15:05:13;27.70;91.80
37446;DHT22;23307;51.136;14.942;2023-07-24T15:07:38;28.30;90.50
37446;DHT22;23307;51.136;14.942;2023-07-24T15:10:04;28.20;88.70
37446;DHT22;23307;51.136;14.942;2023-07-24T15:12:30;27.90;88.00